Terminal Aerodrome Forecast
Issued by NWS

Home | Current Version | Previous Version | Text Only | Print | Product List | Glossary On
Versions: 1 2 3 4 5 6 7 8 9 10 11 12 13
646
FTUS46 KSGX 301720
TAFONT
TAF
KONT 301720Z 3018/3124 VRB05KT 5SM HZ BKN022 BKN150
     FM302100 25011G18KT P6SM SCT100
     FM310500 26006KT P6SM FEW150
     FM311100 VRB04KT P6SM SCT010
     FM312100 26010G18KT P6SM SCT200=

USA.gov is the U.S. government's official web portal to all federal, state and local government web resources and services.